createdAt,value
2023-04-02T00:01:02.618Z,9.68
2023-04-02T00:02:22.863Z,9.63
2023-04-02T00:03:24.656Z,9.58
2023-04-02T00:04:26.584Z,9.67
2023-04-02T00:05:50.188Z,9.64
2023-04-02T00:07:16.703Z,9.69
2023-04-02T00:08:29.577Z,9.70
2023-04-02T00:09:36.069Z,9.70
2023-04-02T00:10:46.769Z,9.67
2023-04-02T00:11:54.857Z,9.63
2023-04-02T00:13:22.315Z,9.73
2023-04-02T00:14:33.627Z,9.72
2023-04-02T00:15:36.091Z,9.64
2023-04-02T00:16:38.274Z,9.63
2023-04-02T00:17:40.024Z,9.65
2023-04-02T00:18:46.713Z,9.66
2023-04-02T00:19:54.722Z,9.71
2023-04-02T00:21:08.271Z,9.65
2023-04-02T00:22:17.003Z,9.76
2023-04-02T00:23:19.753Z,9.70
2023-04-02T00:24:22.421Z,9.76
2023-04-02T00:25:28.395Z,9.77
2023-04-02T00:26:40.174Z,9.82
2023-04-02T00:27:42.317Z,9.80
2023-04-02T00:28:43.992Z,9.82
2023-04-02T00:29:51.627Z,9.89
2023-04-02T00:30:56.428Z,9.90
2023-04-02T00:32:00.062Z,9.79
2023-04-02T00:33:01.947Z,9.90
2023-04-02T00:34:04.973Z,9.90
2023-04-02T00:35:23.136Z,9.86
2023-04-02T00:36:30.234Z,9.88
2023-04-02T00:37:39.486Z,9.90
2023-04-02T00:38:44.302Z,9.87
2023-04-02T00:39:46.598Z,9.91
2023-04-02T00:40:51.289Z,9.92
2023-04-02T00:42:07.082Z,9.89
2023-04-02T00:43:09.219Z,9.88
2023-04-02T00:44:22.167Z,9.88
2023-04-02T00:45:33.404Z,9.93
2023-04-02T00:46:47.400Z,9.91
2023-04-02T00:47:50.064Z,9.86
2023-04-02T00:49:05.821Z,9.91
2023-04-02T00:50:14.703Z,9.92
2023-04-02T00:51:23.896Z,9.92
2023-04-02T00:52:29.544Z,9.93
2023-04-02T00:53:32.201Z,9.93
2023-04-02T00:54:41.824Z,9.94
2023-04-02T00:55:44.302Z,9.97
2023-04-02T00:56:48.420Z,9.97
2023-04-02T00:57:51.565Z,9.94
2023-04-02T00:58:55.790Z,9.92
2023-04-02T01:00:12.160Z,9.92
2023-04-02T01:01:19.788Z,9.90
2023-04-02T01:02:31.120Z,9.90
2023-04-02T01:03:36.502Z,9.90
2023-04-02T01:04:38.976Z,9.90
2023-04-02T01:05:42.629Z,9.91
2023-04-02T01:06:46.109Z,9.93
2023-04-02T01:07:56.453Z,9.94
2023-04-02T01:09:37.693Z,9.95
2023-04-02T01:11:02.140Z,9.95
2023-04-02T01:12:24.912Z,9.97
2023-04-02T01:13:36.880Z,9.97
2023-04-02T01:15:03.921Z,9.99
2023-04-02T01:16:39.127Z,9.92
2023-04-02T01:18:06.510Z,9.99
2023-04-02T01:19:35.862Z,10.03
2023-04-02T01:20:37.971Z,10.03
2023-04-02T01:22:09.675Z,10.04
2023-04-02T01:23:26.474Z,10.05
2023-04-02T01:24:34.245Z,9.97
2023-04-02T01:25:38.656Z,10.04
2023-04-02T01:27:01.278Z,10.02
2023-04-02T01:28:19.762Z,10.01
2023-04-02T01:29:31.837Z,10.01
2023-04-02T01:30:36.716Z,10.06
2023-04-02T01:31:39.534Z,10.08
2023-04-02T01:32:43.252Z,10.09
2023-04-02T01:33:45.137Z,10.10
2023-04-02T01:34:48.097Z,10.05
2023-04-02T01:36:07.051Z,10.13
2023-04-02T01:37:14.698Z,10.14
2023-04-02T01:38:25.980Z,10.17
2023-04-02T01:39:34.152Z,10.17
2023-04-02T01:40:45.766Z,10.20
2023-04-02T01:42:10.792Z,10.21
2023-04-02T01:43:24.655Z,10.22
2023-04-02T01:44:41.969Z,10.23
2023-04-02T01:45:44.481Z,10.20
2023-04-02T01:46:48.972Z,10.18
2023-04-02T01:47:51.755Z,10.14
2023-04-02T01:48:55.101Z,10.07
2023-04-02T01:50:14.831Z,10.17
2023-04-02T01:51:29.074Z,10.19
2023-04-02T01:52:41.239Z,10.16
2023-04-02T01:53:42.974Z,10.20
2023-04-02T01:54:47.356Z,10.17
2023-04-02T01:56:00.419Z,10.14
2023-04-02T01:57:02.407Z,10.09
2023-04-02T01:58:04.846Z,10.15
2023-04-02T01:59:07.266Z,10.17
2023-04-02T02:00:14.768Z,10.15
2023-04-02T02:01:20.915Z,10.12
2023-04-02T02:02:22.818Z,10.06
2023-04-02T02:03:24.787Z,10.13
2023-04-02T02:04:26.969Z,10.09
2023-04-02T02:05:29.620Z,10.06
2023-04-02T02:06:31.770Z,10.11
2023-04-02T02:07:33.565Z,10.11
2023-04-02T02:08:59.650Z,10.12
2023-04-02T02:10:01.703Z,10.10
2023-04-02T02:11:04.212Z,10.09
2023-04-02T02:12:06.802Z,10.06
2023-04-02T02:13:14.920Z,10.07
2023-04-02T02:14:23.931Z,10.10
2023-04-02T02:15:26.218Z,10.01
2023-04-02T02:16:30.219Z,10.11
2023-04-02T02:17:34.738Z,10.10
2023-04-02T02:18:37.077Z,10.14
2023-04-02T02:19:43.804Z,10.14
2023-04-02T02:20:46.485Z,10.16
2023-04-02T02:22:04.744Z,10.12
2023-04-02T02:23:07.394Z,10.17
2023-04-02T02:24:22.432Z,10.17
2023-04-02T02:25:34.034Z,10.13
2023-04-02T02:26:36.854Z,10.15
2023-04-02T02:27:53.794Z,10.13
2023-04-02T02:28:57.972Z,10.13
2023-04-02T02:30:09.912Z,10.11
2023-04-02T02:31:19.742Z,10.11
2023-04-02T02:32:25.679Z,10.10
2023-04-02T02:33:37.103Z,10.09
2023-04-02T02:34:43.594Z,10.04
2023-04-02T02:35:56.825Z,10.03
2023-04-02T02:37:17.898Z,10.05
2023-04-02T02:38:34.546Z,10.08
2023-04-02T02:39:50.472Z,10.05
2023-04-02T02:40:57.058Z,10.03
2023-04-02T02:42:10.285Z,10.03
2023-04-02T02:43:14.622Z,10.04
2023-04-02T02:44:22.601Z,10.07
2023-04-02T02:45:31.454Z,10.06
2023-04-02T02:46:36.005Z,10.11
2023-04-02T02:47:40.123Z,10.11
2023-04-02T02:48:44.215Z,10.14
2023-04-02T02:49:52.894Z,10.13
2023-04-02T02:50:56.468Z,10.10
2023-04-02T02:52:18.900Z,10.03
2023-04-02T02:53:23.974Z,10.12
2023-04-02T02:54:27.819Z,10.11
2023-04-02T02:55:38.114Z,10.06
2023-04-02T02:56:46.946Z,10.13
2023-04-02T02:58:10.404Z,10.15
2023-04-02T02:59:15.261Z,10.16
2023-04-02T03:00:19.640Z,10.17
2023-04-02T03:01:21.775Z,10.17
2023-04-02T03:02:26.547Z,10.18
2023-04-02T03:03:32.768Z,10.22
2023-04-02T03:04:36.682Z,10.25
2023-04-02T03:05:40.490Z,10.22
2023-04-02T03:06:42.545Z,10.25
2023-04-02T03:07:44.461Z,10.16
2023-04-02T03:08:54.041Z,10.28
2023-04-02T03:10:15.316Z,10.28
2023-04-02T03:11:16.943Z,10.32
2023-04-02T03:12:37.111Z,10.34
2023-04-02T03:13:47.410Z,10.35
2023-04-02T03:14:58.690Z,10.33
2023-04-02T03:16:19.447Z,10.33
2023-04-02T03:17:45.073Z,10.29
2023-04-02T03:18:56.932Z,10.34
2023-04-02T03:20:30.619Z,10.22
2023-04-02T03:21:46.169Z,10.36
2023-04-02T03:22:58.661Z,10.37
2023-04-02T03:24:32.629Z,10.41
2023-04-02T03:25:46.737Z,10.42
2023-04-02T03:26:59.122Z,10.46
2023-04-02T03:28:06.799Z,10.51
2023-04-02T03:29:18.532Z,10.53
2023-04-02T03:30:42.231Z,10.57
2023-04-02T03:32:24.394Z,10.61
2023-04-02T03:33:50.438Z,10.66
2023-04-02T03:34:57.301Z,10.69
2023-04-02T03:36:19.017Z,10.72
2023-04-02T03:37:34.564Z,10.76
2023-04-02T03:38:43.760Z,10.76
2023-04-02T03:40:08.968Z,10.81
2023-04-02T03:41:27.239Z,10.78
2023-04-02T03:42:49.272Z,10.75
2023-04-02T03:44:02.182Z,10.81
2023-04-02T03:45:07.963Z,10.79
2023-04-02T03:46:22.583Z,10.89
2023-04-02T03:47:30.881Z,10.91
2023-04-02T03:48:46.157Z,10.93
2023-04-02T03:49:59.973Z,10.97
2023-04-02T03:51:11.543Z,10.92
2023-04-02T03:52:39.802Z,10.99
2023-04-02T03:53:44.577Z,11.04
2023-04-02T03:54:53.233Z,11.02
2023-04-02T03:55:57.481Z,11.04
2023-04-02T03:57:00.769Z,10.97
2023-04-02T03:58:14.374Z,11.08
2023-04-02T03:59:28.587Z,11.08
2023-04-02T04:00:39.274Z,11.17
2023-04-02T04:01:55.374Z,11.14
2023-04-02T04:03:03.304Z,11.22
2023-04-02T04:04:18.165Z,11.22
2023-04-02T04:05:51.910Z,11.17
2023-04-02T04:06:56.808Z,11.17
2023-04-02T04:08:03.638Z,11.16
2023-04-02T04:09:17.262Z,11.18
2023-04-02T04:10:24.506Z,11.21
2023-04-02T04:11:31.913Z,11.25
2023-04-02T04:12:40.051Z,11.24
2023-04-02T04:14:10.225Z,11.27
2023-04-02T04:15:20.026Z,11.29
2023-04-02T04:16:42.145Z,11.29
2023-04-02T04:18:02.243Z,11.30
2023-04-02T04:19:19.640Z,11.31
2023-04-02T04:20:26.174Z,11.35
2023-04-02T04:21:37.768Z,11.22
2023-04-02T04:22:40.989Z,11.35
2023-04-02T04:23:50.539Z,11.21
2023-04-02T04:24:53.309Z,11.35
2023-04-02T04:26:09.922Z,11.33
2023-04-02T04:27:33.937Z,11.21
2023-04-02T04:28:58.609Z,11.43
2023-04-02T04:30:06.683Z,11.44
2023-04-02T04:31:23.871Z,11.43
2023-04-02T04:32:58.464Z,11.43
2023-04-02T04:34:09.278Z,11.46
2023-04-02T04:35:22.896Z,11.51
2023-04-02T04:36:32.853Z,11.50
2023-04-02T04:37:41.527Z,11.52
2023-04-02T04:38:55.313Z,11.53
2023-04-02T04:40:11.411Z,11.49
2023-04-02T04:41:16.694Z,11.40
2023-04-02T04:42:27.387Z,11.40
2023-04-02T04:43:46.930Z,11.44
2023-04-02T04:45:03.870Z,11.41
2023-04-02T04:46:27.549Z,11.35
2023-04-02T04:47:37.383Z,11.33
2023-04-02T04:49:02.416Z,11.36
2023-04-02T04:50:12.243Z,11.35
2023-04-02T04:51:22.270Z,11.31
2023-04-02T04:52:25.980Z,11.32
2023-04-02T04:53:29.531Z,11.27
2023-04-02T04:54:31.468Z,11.08
2023-04-02T04:55:45.478Z,11.11
2023-04-02T04:56:50.450Z,11.10
2023-04-02T04:58:01.036Z,11.08
2023-04-02T04:59:11.885Z,11.09
2023-04-02T05:00:29.020Z,11.06
2023-04-02T05:01:42.152Z,10.98
2023-04-02T05:03:17.287Z,11.04
2023-04-02T05:04:34.210Z,11.02
2023-04-02T05:05:39.446Z,11.01
2023-04-02T05:06:49.614Z,10.86
2023-04-02T05:07:57.920Z,11.01
2023-04-02T05:09:13.937Z,11.03
2023-04-02T05:10:32.505Z,10.94
2023-04-02T05:12:07.042Z,10.97
2023-04-02T05:13:20.946Z,10.99
2023-04-02T05:14:40.637Z,11.01
2023-04-02T05:15:51.497Z,11.00
2023-04-02T05:17:01.369Z,11.07
2023-04-02T05:18:15.001Z,11.11
2023-04-02T05:19:16.631Z,11.18
2023-04-02T05:20:25.760Z,11.19
2023-04-02T05:21:38.723Z,11.19
2023-04-02T05:22:56.330Z,11.18
2023-04-02T05:24:16.449Z,11.22
2023-04-02T05:25:26.410Z,11.11
2023-04-02T05:26:37.494Z,10.91
2023-04-02T05:27:52.854Z,10.96
2023-04-02T05:29:06.692Z,11.08
2023-04-02T05:30:23.492Z,11.10
2023-04-02T05:31:37.989Z,11.17
2023-04-02T05:32:56.510Z,11.20
2023-04-02T05:33:58.384Z,11.31
2023-04-02T05:35:00.498Z,11.35
2023-04-02T05:36:18.463Z,11.37
2023-04-02T05:37:23.264Z,11.49
2023-04-02T05:38:32.323Z,11.56
2023-04-02T05:39:34.094Z,11.64
2023-04-02T05:40:43.030Z,11.74
2023-04-02T05:41:47.627Z,11.83
2023-04-02T05:42:52.994Z,11.86
2023-04-02T05:44:03.794Z,11.96
2023-04-02T05:45:20.691Z,12.06
2023-04-02T05:46:28.342Z,12.25
2023-04-02T05:47:33.470Z,12.42
2023-04-02T05:48:38.550Z,12.52
2023-04-02T05:49:44.689Z,12.68
2023-04-02T05:50:53.726Z,12.82
2023-04-02T05:51:59.545Z,12.97
2023-04-02T05:53:16.215Z,13.17
2023-04-02T05:54:26.246Z,13.34
2023-04-02T05:55:57.821Z,13.58
2023-04-02T05:57:09.345Z,13.70
2023-04-02T05:59:34.244Z,13.96
2023-04-02T06:00:39.601Z,14.07
2023-04-02T06:01:47.420Z,14.15
2023-04-02T06:03:00.091Z,14.24
2023-04-02T06:04:31.132Z,14.44
2023-04-02T06:05:40.207Z,14.58
2023-04-02T06:06:42.682Z,14.69
2023-04-02T06:08:03.502Z,14.81
2023-04-02T06:09:33.150Z,14.95
2023-04-02T06:10:46.620Z,15.20
2023-04-02T06:11:56.868Z,15.33
2023-04-02T06:13:03.554Z,15.47
2023-04-02T06:14:11.632Z,15.66
2023-04-02T06:15:18.089Z,15.81
2023-04-02T06:16:28.586Z,15.89
2023-04-02T06:17:33.774Z,16.10
2023-04-02T06:18:36.938Z,16.23
2023-04-02T06:19:39.836Z,16.40
2023-04-02T06:20:41.900Z,16.55
2023-04-02T06:21:45.548Z,16.71
2023-04-02T06:22:56.891Z,16.83
2023-04-02T06:24:04.494Z,16.96
2023-04-02T06:25:18.930Z,16.93
2023-04-02T06:26:41.577Z,17.00
2023-04-02T06:27:45.667Z,16.98
2023-04-02T06:28:52.310Z,17.01
2023-04-02T06:30:01.207Z,16.94
2023-04-02T06:31:12.071Z,16.89
2023-04-02T06:32:13.818Z,16.86
2023-04-02T06:33:16.075Z,16.77
2023-04-02T06:34:21.164Z,16.74
2023-04-02T06:35:23.612Z,16.58
2023-04-02T06:36:27.817Z,16.57
2023-04-02T06:37:34.919Z,16.61
2023-04-02T06:38:38.163Z,16.44
2023-04-02T06:39:39.856Z,16.33
2023-04-02T06:40:46.739Z,16.34
2023-04-02T06:42:15.205Z,16.37
2023-04-02T06:43:27.077Z,16.35
2023-04-02T06:44:33.503Z,16.33
2023-04-02T06:45:41.506Z,16.17
2023-04-02T06:47:06.029Z,16.19
2023-04-02T06:48:15.620Z,16.04
2023-04-02T06:49:29.753Z,16.05
2023-04-02T06:50:49.776Z,16.05
2023-04-02T06:51:54.741Z,16.06
2023-04-02T06:53:00.141Z,16.11
2023-04-02T06:54:04.475Z,16.17
2023-04-02T06:55:29.235Z,16.16
2023-04-02T06:56:43.434Z,16.16
2023-04-02T06:57:45.111Z,16.11
2023-04-02T06:58:46.955Z,16.07
2023-04-02T06:59:48.796Z,16.07
2023-04-02T07:00:51.213Z,16.10
2023-04-02T07:02:04.196Z,15.94
2023-04-02T07:03:13.711Z,15.98
2023-04-02T07:04:15.983Z,16.01
2023-04-02T07:05:17.750Z,15.97
2023-04-02T07:06:21.282Z,15.96
2023-04-02T07:07:22.982Z,15.91
2023-04-02T07:08:24.788Z,15.97
2023-04-02T07:09:26.864Z,15.94
2023-04-02T07:10:34.232Z,15.88
2023-04-02T07:11:36.397Z,15.79
2023-04-02T07:12:38.481Z,15.76
2023-04-02T07:13:40.169Z,15.80
2023-04-02T07:14:41.892Z,15.85
2023-04-02T07:15:47.061Z,15.75
2023-04-02T07:16:48.956Z,15.86
2023-04-02T07:17:52.325Z,15.91
2023-04-02T07:18:56.098Z,15.86
2023-04-02T07:19:57.801Z,15.89
2023-04-02T07:20:59.889Z,15.93
2023-04-02T07:22:01.609Z,15.85
2023-04-02T07:23:04.066Z,15.86
2023-04-02T07:24:06.292Z,15.90
2023-04-02T07:25:08.295Z,15.88
2023-04-02T07:26:15.665Z,15.87
2023-04-02T07:27:20.342Z,15.86
2023-04-02T07:28:23.103Z,15.83
2023-04-02T07:29:24.922Z,15.93
2023-04-02T07:30:26.618Z,15.90
2023-04-02T07:31:28.977Z,15.95
2023-04-02T07:32:30.974Z,15.91
2023-04-02T07:33:32.694Z,15.95
2023-04-02T07:34:34.400Z,15.93
2023-04-02T07:35:37.584Z,15.89
2023-04-02T07:36:39.614Z,15.93
2023-04-02T07:37:41.316Z,15.93
2023-04-02T07:38:43.537Z,15.93
2023-04-02T07:39:45.290Z,15.97
2023-04-02T07:40:47.363Z,16.07
2023-04-02T07:42:02.810Z,16.10
2023-04-02T07:43:06.015Z,16.23
2023-04-02T07:44:07.716Z,16.32
2023-04-02T07:45:09.937Z,16.37
2023-04-02T07:46:15.376Z,16.54
2023-04-02T07:47:17.227Z,16.74
2023-04-02T07:48:18.948Z,17.00
2023-04-02T07:49:21.593Z,17.18
2023-04-02T07:50:23.621Z,17.40
2023-04-02T07:51:26.729Z,17.54
2023-04-02T07:52:31.466Z,17.60
2023-04-02T07:53:40.500Z,17.91
2023-04-02T07:54:42.188Z,18.08
2023-04-02T07:55:43.888Z,18.19
2023-04-02T07:56:45.643Z,18.24
2023-04-02T07:57:52.873Z,18.39
2023-04-02T07:58:54.892Z,18.61
2023-04-02T07:59:57.221Z,18.77
2023-04-02T08:01:00.768Z,18.85
2023-04-02T08:02:03.001Z,18.78
2023-04-02T08:03:05.207Z,18.91
2023-04-02T08:04:08.121Z,19.07
2023-04-02T08:05:10.699Z,19.17
2023-04-02T08:06:12.763Z,19.27
2023-04-02T08:07:14.585Z,19.23
2023-04-02T08:08:16.307Z,19.39
2023-04-02T08:09:18.040Z,19.54
2023-04-02T08:10:19.940Z,19.54
2023-04-02T08:11:21.757Z,19.63
2023-04-02T08:12:23.473Z,19.70
2023-04-02T08:13:25.264Z,19.68
2023-04-02T08:14:26.990Z,19.87
2023-04-02T08:15:28.710Z,20.02
2023-04-02T08:16:44.998Z,20.29
2023-04-02T08:17:48.108Z,20.51
2023-04-02T08:18:49.902Z,20.68
2023-04-02T08:19:55.045Z,21.05
2023-04-02T08:20:57.604Z,21.32
2023-04-02T08:21:59.302Z,21.67
2023-04-02T08:23:01.259Z,21.89
2023-04-02T08:24:04.405Z,22.10
2023-04-02T08:25:06.627Z,22.18
2023-04-02T08:26:08.779Z,21.96
2023-04-02T08:27:15.280Z,21.74
2023-04-02T08:28:17.535Z,21.65
2023-04-02T08:29:19.815Z,21.63
2023-04-02T08:30:21.761Z,21.54
2023-04-02T08:31:23.743Z,21.60
2023-04-02T08:32:26.625Z,21.58
2023-04-02T08:33:28.409Z,21.47
2023-04-02T08:34:30.124Z,21.51
2023-04-02T08:35:31.908Z,21.31
2023-04-02T08:36:36.560Z,21.25
2023-04-02T08:37:38.418Z,21.20
2023-04-02T08:38:40.126Z,21.24
2023-04-02T08:39:41.889Z,21.06
2023-04-02T08:40:47.740Z,20.78
2023-04-02T08:42:00.565Z,20.76
2023-04-02T08:43:33.133Z,20.66
2023-04-02T08:44:40.629Z,20.99
2023-04-02T08:45:54.749Z,21.15
2023-04-02T08:47:04.545Z,21.48
2023-04-02T08:48:10.109Z,21.48
2023-04-02T08:49:18.295Z,21.88
2023-04-02T08:50:33.144Z,22.41
2023-04-02T08:51:36.923Z,22.78
2023-04-02T08:52:39.248Z,22.87
2023-04-02T08:53:42.325Z,22.87
2023-04-02T08:54:44.025Z,22.91
2023-04-02T08:56:06.067Z,23.14
2023-04-02T08:57:21.998Z,23.15
2023-04-02T08:58:45.099Z,23.38
2023-04-02T08:59:48.049Z,23.57
2023-04-02T09:00:54.565Z,23.60
2023-04-02T09:01:56.364Z,23.54
2023-04-02T09:03:02.720Z,23.61
2023-04-02T09:04:14.640Z,23.57
2023-04-02T09:05:26.752Z,23.56
2023-04-02T09:06:29.309Z,23.81
2023-04-02T09:07:33.180Z,23.78
2023-04-02T09:08:35.596Z,23.87
2023-04-02T09:09:38.520Z,24.08
2023-04-02T09:10:45.072Z,24.05
2023-04-02T09:12:04.372Z,23.96
2023-04-02T09:13:18.483Z,24.20
2023-04-02T09:14:43.606Z,24.47
2023-04-02T09:15:45.786Z,24.54
2023-04-02T09:16:52.723Z,24.58
2023-04-02T09:18:18.965Z,24.63
2023-04-02T09:19:35.616Z,24.63
2023-04-02T09:20:37.699Z,24.72
2023-04-02T09:21:46.989Z,24.85
2023-04-02T09:22:51.942Z,24.82
2023-04-02T09:23:54.226Z,24.72
2023-04-02T09:25:01.270Z,24.49
2023-04-02T09:26:04.476Z,24.71
2023-04-02T09:27:21.776Z,24.55
2023-04-02T09:28:26.544Z,24.49
2023-04-02T09:29:28.179Z,24.49
2023-04-02T09:30:30.036Z,24.44
2023-04-02T09:31:39.379Z,24.57
2023-04-02T09:32:49.266Z,24.85
2023-04-02T09:33:54.796Z,25.21
2023-04-02T09:35:26.261Z,25.11
2023-04-02T09:36:40.078Z,25.28
2023-04-02T09:37:43.717Z,25.21
2023-04-02T09:39:15.854Z,25.47
2023-04-02T09:40:26.273Z,25.69
2023-04-02T09:41:30.468Z,25.82
2023-04-02T09:42:36.350Z,25.76
2023-04-02T09:43:39.410Z,26.11
2023-04-02T09:44:41.346Z,26.39
2023-04-02T09:45:45.431Z,26.57
2023-04-02T09:47:03.701Z,26.56
2023-04-02T09:48:24.284Z,26.88
2023-04-02T09:49:28.725Z,26.99
2023-04-02T09:50:32.999Z,26.98
2023-04-02T09:51:36.708Z,27.08
2023-04-02T09:52:38.473Z,27.21
2023-04-02T09:53:46.272Z,27.23
2023-04-02T09:55:16.911Z,27.07
2023-04-02T09:56:23.991Z,27.31
2023-04-02T09:57:28.137Z,27.29
2023-04-02T09:58:30.042Z,27.54
2023-04-02T09:59:31.747Z,27.85
2023-04-02T10:00:33.520Z,28.07
2023-04-02T10:01:41.452Z,28.25
2023-04-02T10:02:44.738Z,28.32
2023-04-02T10:03:46.699Z,28.24
2023-04-02T10:04:49.777Z,28.03
2023-04-02T10:06:10.701Z,28.07
2023-04-02T10:07:39.341Z,27.99
2023-04-02T10:08:45.660Z,27.73
2023-04-02T10:09:57.899Z,27.65
2023-04-02T10:11:08.089Z,27.65
2023-04-02T10:12:14.235Z,27.64
2023-04-02T10:13:22.157Z,27.84
2023-04-02T10:14:40.884Z,28.05
2023-04-02T10:15:57.725Z,28.24
2023-04-02T10:17:15.969Z,28.31
2023-04-02T10:18:46.833Z,28.17
2023-04-02T10:19:55.515Z,28.21
2023-04-02T10:21:00.542Z,28.23
2023-04-02T10:22:06.907Z,28.05
2023-04-02T10:23:18.611Z,27.98
2023-04-02T10:24:20.432Z,28.20
2023-04-02T10:25:27.190Z,28.32
2023-04-02T10:26:37.739Z,28.40
2023-04-02T10:27:51.312Z,28.35
2023-04-02T10:29:04.423Z,28.40
2023-04-02T10:30:19.285Z,28.48
2023-04-02T10:31:33.614Z,28.52
2023-04-02T10:32:38.448Z,28.66
2023-04-02T10:33:43.768Z,28.61
2023-04-02T10:35:01.903Z,28.86
2023-04-02T10:36:30.473Z,29.23
2023-04-02T10:37:44.076Z,29.48
2023-04-02T10:38:55.188Z,29.64
2023-04-02T10:40:14.397Z,29.39
2023-04-02T10:41:18.931Z,29.48
2023-04-02T10:42:23.382Z,29.45
2023-04-02T10:43:31.362Z,29.55
2023-04-02T10:44:51.433Z,29.61
2023-04-02T10:46:25.083Z,29.61
2023-04-02T10:47:42.262Z,29.66
2023-04-02T10:48:59.974Z,29.73
2023-04-02T10:50:20.545Z,29.73
2023-04-02T10:51:46.987Z,29.71
2023-04-02T10:53:03.760Z,29.86
2023-04-02T10:54:43.333Z,29.87
2023-04-02T10:55:52.655Z,29.90
2023-04-02T10:56:57.563Z,29.80
2023-04-02T10:58:07.966Z,29.91
2023-04-02T10:59:27.228Z,29.97
2023-04-02T11:00:35.084Z,29.91
2023-04-02T11:01:41.443Z,29.88
2023-04-02T11:02:55.644Z,30.07
2023-04-02T11:04:03.299Z,30.20
2023-04-02T11:05:46.579Z,30.31
2023-04-02T11:07:13.323Z,30.49
2023-04-02T11:08:41.720Z,30.52
2023-04-02T11:09:47.280Z,30.27
2023-04-02T11:11:04.956Z,30.16
2023-04-02T11:12:08.734Z,30.03
2023-04-02T11:13:35.793Z,29.61
2023-04-02T11:14:37.577Z,29.38
2023-04-02T11:15:39.819Z,29.27
2023-04-02T11:16:44.458Z,29.08
2023-04-02T11:17:47.890Z,29.16
2023-04-02T11:19:29.975Z,29.17
2023-04-02T11:20:57.746Z,29.19
2023-04-02T11:22:17.115Z,29.20
2023-04-02T11:23:21.020Z,29.43
2023-04-02T11:24:32.720Z,29.49
2023-04-02T11:25:34.766Z,29.59
2023-04-02T11:26:41.486Z,29.73
2023-04-02T11:27:43.226Z,29.74
2023-04-02T11:28:45.146Z,29.75
2023-04-02T11:29:54.806Z,29.76
2023-04-02T11:30:57.822Z,29.79
2023-04-02T11:32:24.477Z,29.76
2023-04-02T11:33:44.774Z,29.69
2023-04-02T11:34:56.354Z,29.64
2023-04-02T11:36:02.337Z,29.72
2023-04-02T11:37:09.735Z,29.77
2023-04-02T11:38:11.386Z,29.65
2023-04-02T11:39:17.303Z,29.58
2023-04-02T11:40:19.393Z,29.46
2023-04-02T11:42:03.468Z,29.30
2023-04-02T11:43:34.578Z,29.15
2023-04-02T11:44:36.382Z,29.09
2023-04-02T11:45:52.775Z,29.21
2023-04-02T11:47:19.115Z,29.29
2023-04-02T11:48:21.050Z,29.07
2023-04-02T11:49:38.329Z,29.00
2023-04-02T11:50:46.616Z,28.63
2023-04-02T11:51:56.366Z,28.88
2023-04-02T11:53:11.048Z,29.00
2023-04-02T11:54:26.406Z,28.83
2023-04-02T11:55:31.740Z,28.70
2023-04-02T11:56:49.702Z,28.85
2023-04-02T11:58:37.018Z,28.74
2023-04-02T12:00:31.598Z,28.45
2023-04-02T12:01:45.357Z,28.36
2023-04-02T12:03:14.986Z,28.31
2023-04-02T12:04:28.654Z,28.38
2023-04-02T12:05:39.471Z,28.49
2023-04-02T12:06:47.376Z,28.21
2023-04-02T12:08:13.869Z,28.28
2023-04-02T12:09:31.116Z,28.20
2023-04-02T12:10:51.389Z,28.19
2023-04-02T12:11:56.743Z,27.96
2023-04-02T12:13:01.290Z,27.88
2023-04-02T12:14:28.010Z,27.90
2023-04-02T12:15:45.431Z,27.62
2023-04-02T12:16:48.107Z,27.54
2023-04-02T12:17:50.056Z,27.59
2023-04-02T12:18:54.635Z,27.55
2023-04-02T12:20:24.016Z,27.50
2023-04-02T12:21:28.341Z,27.46
2023-04-02T12:22:32.845Z,27.24
2023-04-02T12:23:37.167Z,27.21
2023-04-02T12:24:40.729Z,26.98
2023-04-02T12:25:46.532Z,26.98
2023-04-02T12:26:48.641Z,27.13
2023-04-02T12:28:14.548Z,27.22
2023-04-02T12:29:23.290Z,27.10
2023-04-02T12:30:25.070Z,27.09
2023-04-02T12:31:27.299Z,27.18
2023-04-02T12:32:30.841Z,27.25
2023-04-02T12:33:37.601Z,27.26
2023-04-02T12:34:46.557Z,27.33
2023-04-02T12:35:53.376Z,27.40
2023-04-02T12:36:59.787Z,27.29
2023-04-02T12:38:01.637Z,27.29
2023-04-02T12:39:03.564Z,27.09
2023-04-02T12:40:17.376Z,26.97
2023-04-02T12:41:24.164Z,27.00
2023-04-02T12:42:37.526Z,26.94
2023-04-02T12:43:40.216Z,27.05
2023-04-02T12:44:49.225Z,27.14
2023-04-02T12:45:57.773Z,27.11
2023-04-02T12:46:59.753Z,27.17
2023-04-02T12:48:05.209Z,27.24
2023-04-02T12:49:12.711Z,27.38
2023-04-02T12:50:16.105Z,27.46
2023-04-02T12:51:17.956Z,27.48
2023-04-02T12:52:22.716Z,27.45
2023-04-02T12:53:29.588Z,27.53
2023-04-02T12:54:37.102Z,27.48
2023-04-02T12:55:38.854Z,27.51
2023-04-02T12:56:40.548Z,27.62
2023-04-02T12:57:42.596Z,27.67
2023-04-02T12:58:57.178Z,27.40
2023-04-02T13:00:01.719Z,27.35
2023-04-02T13:01:34.033Z,27.11
2023-04-02T13:02:47.384Z,27.02
2023-04-02T13:04:12.453Z,26.75
2023-04-02T13:05:46.637Z,26.78
2023-04-02T13:06:57.390Z,26.92
2023-04-02T13:07:59.243Z,26.86
2023-04-02T13:09:03.937Z,26.88
2023-04-02T13:10:23.635Z,26.99
2023-04-02T13:11:41.737Z,27.14
2023-04-02T13:12:46.253Z,27.24
2023-04-02T13:13:48.823Z,27.35
2023-04-02T13:14:56.608Z,27.48
2023-04-02T13:16:07.848Z,27.55
2023-04-02T13:17:37.630Z,27.48
2023-04-02T13:18:39.430Z,27.58
2023-04-02T13:19:41.143Z,27.56
2023-04-02T13:20:54.374Z,27.22
2023-04-02T13:21:57.311Z,27.21
2023-04-02T13:23:00.962Z,27.12
2023-04-02T13:24:02.664Z,26.81
2023-04-02T13:25:04.613Z,26.55
2023-04-02T13:26:29.048Z,26.57
2023-04-02T13:27:30.854Z,26.63
2023-04-02T13:28:32.650Z,26.39
2023-04-02T13:29:36.808Z,26.29
2023-04-02T13:30:38.606Z,26.30
2023-04-02T13:31:40.544Z,26.32
2023-04-02T13:32:42.604Z,26.15
2023-04-02T13:33:44.380Z,26.10
2023-04-02T13:34:46.641Z,26.13
2023-04-02T13:35:48.396Z,26.12
2023-04-02T13:36:50.474Z,25.48
2023-04-02T13:37:52.208Z,25.34
2023-04-02T13:38:53.885Z,25.34
2023-04-02T13:39:55.574Z,25.21
2023-04-02T13:40:57.766Z,25.37
2023-04-02T13:42:02.545Z,25.45
2023-04-02T13:43:05.743Z,25.63
2023-04-02T13:44:07.733Z,25.61
2023-04-02T13:45:33.918Z,25.90
2023-04-02T13:46:35.711Z,26.02
2023-04-02T13:47:39.139Z,26.16
2023-04-02T13:48:42.761Z,26.11
2023-04-02T13:49:44.474Z,26.28
2023-04-02T13:50:46.817Z,26.35
2023-04-02T13:51:54.661Z,26.49
2023-04-02T13:52:59.864Z,26.63
2023-04-02T13:54:01.665Z,26.67
2023-04-02T13:55:03.643Z,26.70
2023-04-02T13:56:05.596Z,26.45
2023-04-02T13:57:07.643Z,25.57
2023-04-02T13:58:10.774Z,25.37
2023-04-02T13:59:13.363Z,25.25
2023-04-02T14:00:15.375Z,25.27
2023-04-02T14:01:18.498Z,24.93
2023-04-02T14:02:28.218Z,24.86
2023-04-02T14:03:30.076Z,24.91
2023-04-02T14:04:38.012Z,24.90
2023-04-02T14:05:40.407Z,24.96
2023-04-02T14:07:10.305Z,25.00
2023-04-02T14:08:33.949Z,24.88
2023-04-02T14:09:47.822Z,24.86
2023-04-02T14:11:27.193Z,24.86
2023-04-02T14:12:28.841Z,24.90
2023-04-02T14:13:30.534Z,24.88
2023-04-02T14:14:48.721Z,24.64
2023-04-02T14:15:59.979Z,24.65
2023-04-02T14:17:11.379Z,24.65
2023-04-02T14:18:32.015Z,24.62
2023-04-02T14:19:52.180Z,24.65
2023-04-02T14:20:56.663Z,24.55
2023-04-02T14:22:17.288Z,24.57
2023-04-02T14:23:21.886Z,24.60
2023-04-02T14:24:32.664Z,24.61
2023-04-02T14:25:57.535Z,24.57
2023-04-02T14:27:17.617Z,24.61
2023-04-02T14:28:42.849Z,24.63
2023-04-02T14:29:53.718Z,24.64
2023-04-02T14:30:58.564Z,24.64
2023-04-02T14:32:05.530Z,24.63
2023-04-02T14:33:24.746Z,24.60
2023-04-02T14:34:41.439Z,24.60
2023-04-02T14:35:46.556Z,24.57
2023-04-02T14:36:58.766Z,24.53
2023-04-02T14:38:16.165Z,24.51
2023-04-02T14:39:36.567Z,24.48
2023-04-02T14:41:03.439Z,24.47
2023-04-02T14:42:14.132Z,24.37
2023-04-02T14:43:33.624Z,24.40
2023-04-02T14:44:42.472Z,24.31
2023-04-02T14:46:01.409Z,24.25
2023-04-02T14:47:34.680Z,24.18
2023-04-02T14:48:45.277Z,24.14
2023-04-02T14:49:51.659Z,24.11
2023-04-02T14:50:59.584Z,24.09
2023-04-02T14:52:07.298Z,24.06
2023-04-02T14:53:24.355Z,24.01
2023-04-02T14:54:34.740Z,23.96
2023-04-02T14:55:43.713Z,23.88
2023-04-02T14:56:50.420Z,23.87
2023-04-02T14:57:53.739Z,23.88
2023-04-02T14:59:17.376Z,23.74
2023-04-02T15:00:25.195Z,23.78
2023-04-02T15:01:35.474Z,23.67
2023-04-02T15:02:47.331Z,23.64
2023-04-02T15:04:03.164Z,23.54
2023-04-02T15:05:28.236Z,23.55